Time;durP1;ratioP1;P1;durP2;ratioP2;P2;SDS_P1;SDS_P2;PMS_P1;PMS_P2;Temp;Humidity;BMP_temperature;BMP_pressure;BME280_temperature;BME280_humidity;BME280_pressure;Samples;Min_cycle;Max_cycle;Signal;HPM_P1;HPM_P2
2024/04/02 00:00:43;;;;;;;25.70;8.40;;;;;;;;;;5030792;28;20465;-64
2024/04/02 00:03:10;;;;;;;28.15;8.40;;;;;;;;;;5031356;28;20104;-66
2024/04/02 00:05:36;;;;;;;27.48;8.40;;;;;;;;;;5011961;28;20022;-66
2024/04/02 00:08:02;;;;;;;26.85;8.38;;;;;;;;;;5015504;28;20025;-64
2024/04/02 00:10:28;;;;;;;25.27;8.57;;;;;;;;;;5016367;28;20033;-62
2024/04/02 00:12:53;;;;;;;22.58;8.43;;;;;;;;;;5019328;28;20018;-66
2024/04/02 00:15:18;;;;;;;22.23;7.27;;;;;;;;;;5035909;28;20029;-66
2024/04/02 00:17:44;;;;;;;20.13;8.20;;;;;;;;;;5035764;28;20743;-66
2024/04/02 00:20:09;;;;;;;25.52;8.40;;;;;;;;;;5035706;28;20363;-65
2024/04/02 00:22:34;;;;;;;20.70;8.03;;;;;;;;;;5035666;28;20021;-66
2024/04/02 00:25:00;;;;;;;21.77;7.97;;;;;;;;;;5035334;28;20269;-63
2024/04/02 00:27:27;;;;;;;20.00;7.80;;;;;;;;;;5036102;28;20437;-65
2024/04/02 00:29:52;;;;;;;22.48;8.18;;;;;;;;;;5035717;28;20353;-70
2024/04/02 00:32:18;;;;;;;24.08;8.20;;;;;;;;;;5034731;28;20053;-68
2024/04/02 00:34:43;;;;;;;23.58;8.20;;;;;;;;;;5034580;28;20033;-66
2024/04/02 00:37:09;;;;;;;22.73;8.95;;;;;;;;;;5035886;28;20368;-64
2024/04/02 00:39:36;;;;;;;26.67;8.77;;;;;;;;;;5035357;28;20064;-64
2024/04/02 00:42:01;;;;;;;24.25;9.13;;;;;;;;;;5035492;28;20316;-66
2024/04/02 00:44:27;;;;;;;28.17;9.13;;;;;;;;;;5036107;28;20021;-66
2024/04/02 00:46:52;;;;;;;25.05;8.85;;;;;;;;;;5035307;28;20093;-68
2024/04/02 00:49:18;;;;;;;24.52;7.95;;;;;;;;;;5035039;28;20036;-67
2024/04/02 00:51:43;;;;;;;22.95;8.90;;;;;;;;;;5032455;28;20098;-67
2024/04/02 00:54:08;;;;;;;24.70;8.02;;;;;;;;;;5035169;28;20049;-67
2024/04/02 00:56:34;;;;;;;23.15;8.30;;;;;;;;;;5034965;28;20067;-66
2024/04/02 00:58:59;;;;;;;27.42;8.57;;;;;;;;;;5034932;28;20041;-67
2024/04/02 01:01:24;;;;;;;21.52;8.18;;;;;;;;;;5035467;28;20113;-68
2024/04/02 01:03:50;;;;;;;20.23;7.83;;;;;;;;;;5035210;28;20018;-65
2024/04/02 01:06:15;;;;;;;22.77;8.00;;;;;;;;;;5034720;28;20287;-65
2024/04/02 01:08:40;;;;;;;24.70;8.60;;;;;;;;;;5034653;28;20313;-65
2024/04/02 01:11:06;;;;;;;23.67;8.48;;;;;;;;;;5035277;28;20028;-64
2024/04/02 01:13:31;;;;;;;24.63;8.52;;;;;;;;;;5035052;28;20021;-59
2024/04/02 01:16:06;;;;;;;20.65;8.25;;;;;;;;;;5033984;28;20357;-65
2024/04/02 01:18:31;;;;;;;25.83;9.18;;;;;;;;;;5034439;28;20425;-66
2024/04/02 01:20:56;;;;;;;21.20;8.18;;;;;;;;;;5035152;28;20030;-66
2024/04/02 01:23:22;;;;;;;24.05;8.18;;;;;;;;;;5035065;28;20041;-66
2024/04/02 01:25:47;;;;;;;22.80;8.20;;;;;;;;;;5034649;28;20032;-67
2024/04/02 01:28:12;;;;;;;31.10;9.23;;;;;;;;;;5034070;28;20356;-64
2024/04/02 01:30:38;;;;;;;26.83;8.30;;;;;;;;;;5035072;28;20364;-66
2024/04/02 01:33:03;;;;;;;20.75;9.00;;;;;;;;;;5034933;28;20057;-65
2024/04/02 01:35:28;;;;;;;21.75;8.40;;;;;;;;;;5034659;28;20026;-67
2024/04/02 01:37:54;;;;;;;27.38;9.13;;;;;;;;;;5034216;28;20078;-67
2024/04/02 01:40:19;;;;;;;18.75;8.40;;;;;;;;;;5034240;28;20041;-68
2024/04/02 01:42:44;;;;;;;25.17;9.18;;;;;;;;;;5034813;28;20108;-66
2024/04/02 01:45:10;;;;;;;27.50;8.97;;;;;;;;;;5034071;28;20141;-65
2024/04/02 01:47:35;;;;;;;20.33;8.93;;;;;;;;;;5034225;28;20251;-65
2024/04/02 01:50:00;;;;;;;28.75;8.43;;;;;;;;;;5034515;28;20034;-65
2024/04/02 01:52:25;;;;;;;22.05;8.77;;;;;;;;;;5034294;28;20111;-67
2024/04/02 01:54:51;;;;;;;24.98;8.93;;;;;;;;;;5034008;28;20057;-65
2024/04/02 01:57:16;;;;;;;28.13;8.93;;;;;;;;;;5033924;28;20040;-66
2024/04/02 01:59:41;;;;;;;28.23;8.25;;;;;;;;;;5033572;28;20136;-67
2024/04/02 02:02:07;;;;;;;28.17;9.02;;;;;;;;;;5033962;28;20033;-67
2024/04/02 02:04:32;;;;;;;23.55;8.30;;;;;;;;;;5034172;28;20414;-67
2024/04/02 02:06:57;;;;;;;26.00;8.15;;;;;;;;;;5033876;28;20033;-66
2024/04/02 02:09:23;;;;;;;25.92;8.82;;;;;;;;;;5034148;28;20083;-65
2024/04/02 02:11:48;;;;;;;27.30;9.10;;;;;;;;;;5033787;28;20029;-66
2024/04/02 02:14:14;;;;;;;25.10;8.87;;;;;;;;;;5033407;28;20036;-67
2024/04/02 02:16:39;;;;;;;21.73;8.60;;;;;;;;;;5033709;28;20535;-67
2024/04/02 02:19:04;;;;;;;30.77;9.07;;;;;;;;;;5033881;28;20040;-66
2024/04/02 02:21:30;;;;;;;21.95;8.85;;;;;;;;;;5033335;28;20156;-66
2024/04/02 02:23:55;;;;;;;25.08;8.75;;;;;;;;;;5033777;28;20052;-67
2024/04/02 02:26:21;;;;;;;25.27;8.68;;;;;;;;;;5033307;28;20447;-68
2024/04/02 02:28:46;;;;;;;30.48;8.63;;;;;;;;;;5032888;28;20030;-67
2024/04/02 02:31:12;;;;;;;25.80;8.73;;;;;;;;;;5033515;28;20030;-67
2024/04/02 02:33:37;;;;;;;18.40;8.10;;;;;;;;;;5033184;28;20025;-63
2024/04/02 02:36:02;;;;;;;24.88;8.63;;;;;;;;;;5033217;28;20029;-64
2024/04/02 02:38:27;;;;;;;29.38;9.52;;;;;;;;;;5033078;28;20459;-64
2024/04/02 02:40:59;;;;;;;30.48;9.75;;;;;;;;;;5033087;28;20120;-65
2024/04/02 02:43:24;;;;;;;24.00;9.40;;;;;;;;;;5033013;28;20028;-65
2024/04/02 02:45:50;;;;;;;25.23;9.23;;;;;;;;;;5033134;28;20021;-65
2024/04/02 02:48:16;;;;;;;27.65;9.18;;;;;;;;;;5032962;28;20372;-65
2024/04/02 02:50:41;;;;;;;25.17;8.65;;;;;;;;;;5032897;28;20448;-64
2024/04/02 02:53:06;;;;;;;25.60;8.40;;;;;;;;;;5033149;28;20025;-65
2024/04/02 02:55:32;;;;;;;24.30;8.80;;;;;;;;;;5032964;28;20286;-64
2024/04/02 02:57:57;;;;;;;30.02;9.43;;;;;;;;;;5033288;28;20076;-65
2024/04/02 03:00:22;;;;;;;24.20;9.18;;;;;;;;;;5032718;28;20072;-65
2024/04/02 03:02:48;;;;;;;29.45;9.77;;;;;;;;;;5032390;28;20448;-65
2024/04/02 03:05:13;;;;;;;28.98;9.65;;;;;;;;;;5032970;28;20032;-66
2024/04/02 03:07:38;;;;;;;22.63;9.20;;;;;;;;;;5033353;28;20470;-61
2024/04/02 03:10:03;;;;;;;28.65;9.18;;;;;;;;;;5033052;28;20243;-64
2024/04/02 03:12:29;;;;;;;23.42;8.70;;;;;;;;;;5032199;28;20021;-65
2024/04/02 03:14:54;;;;;;;25.60;8.82;;;;;;;;;;5032922;28;20030;-65
2024/04/02 03:17:19;;;;;;;25.87;9.13;;;;;;;;;;5033054;28;20348;-65
2024/04/02 03:19:45;;;;;;;27.33;9.13;;;;;;;;;;5032636;28;20373;-65
2024/04/02 03:22:10;;;;;;;29.30;10.00;;;;;;;;;;5032450;28;20574;-65
2024/04/02 03:24:35;;;;;;;29.05;9.30;;;;;;;;;;5033055;28;20057;-64
2024/04/02 03:27:02;;;;;;;25.80;9.27;;;;;;;;;;5032834;28;20347;-65
2024/04/02 03:29:27;;;;;;;28.10;9.40;;;;;;;;;;5033190;28;20647;-65
2024/04/02 03:31:53;;;;;;;24.95;8.75;;;;;;;;;;5032214;28;20145;-66
2024/04/02 03:34:18;;;;;;;32.83;9.53;;;;;;;;;;5032519;28;20021;-68
2024/04/02 03:36:43;;;;;;;23.98;9.18;;;;;;;;;;5032502;28;20330;-67
2024/04/02 03:39:08;;;;;;;37.37;9.67;;;;;;;;;;5032735;28;20037;-67
2024/04/02 03:41:35;;;;;;;29.73;9.50;;;;;;;;;;5031822;28;20247;-66
2024/04/02 03:44:00;;;;;;;25.73;9.35;;;;;;;;;;5032309;28;20030;-66
2024/04/02 03:46:25;;;;;;;29.27;9.67;;;;;;;;;;5032706;28;20018;-67
2024/04/02 03:48:50;;;;;;;29.23;10.07;;;;;;;;;;5031874;28;20251;-66
2024/04/02 03:51:16;;;;;;;28.35;9.55;;;;;;;;;;5032041;28;20327;-66
2024/04/02 03:53:41;;;;;;;30.20;9.70;;;;;;;;;;5032187;28;20028;-67
2024/04/02 03:56:07;;;;;;;25.67;8.48;;;;;;;;;;5032538;28;20037;-67
2024/04/02 03:58:32;;;;;;;27.77;8.93;;;;;;;;;;5032352;28;20033;-67
2024/04/02 04:00:57;;;;;;;28.88;9.35;;;;;;;;;;5031934;28;20069;-67
2024/04/02 04:03:23;;;;;;;32.83;9.57;;;;;;;;;;5031534;28;20017;-66
2024/04/02 04:06:02;;;;;;;29.55;9.82;;;;;;;;;;5032122;28;20029;-67
2024/04/02 04:08:28;;;;;;;30.98;10.02;;;;;;;;;;5030841;28;20026;-67
2024/04/02 04:10:53;;;;;;;28.42;9.80;;;;;;;;;;5031621;28;20021;-66
2024/04/02 04:13:19;;;;;;;39.00;10.03;;;;;;;;;;5031939;28;20087;-66
2024/04/02 04:15:58;;;;;;;32.45;10.02;;;;;;;;;;5031189;28;20326;-66
2024/04/02 04:18:24;;;;;;;36.38;12.55;;;;;;;;;;5012422;28;20034;-67
2024/04/02 04:20:56;;;;;;;26.20;10.40;;;;;;;;;;5011681;28;20045;-68
2024/04/02 04:23:22;;;;;;;35.70;10.10;;;;;;;;;;5011881;28;20069;-67
2024/04/02 04:25:57;;;;;;;26.98;10.20;;;;;;;;;;5013045;28;20061;-68
2024/04/02 04:28:23;;;;;;;33.00;10.40;;;;;;;;;;5012147;28;20042;-65
2024/04/02 04:30:54;;;;;;;28.35;10.27;;;;;;;;;;5011633;28;20042;-67
2024/04/02 04:33:20;;;;;;;29.00;10.30;;;;;;;;;;5012187;28;20032;-66
2024/04/02 04:35:46;;;;;;;35.55;12.77;;;;;;;;;;5012322;28;20351;-67
2024/04/02 04:38:12;;;;;;;37.55;21.70;;;;;;;;;;5012175;28;20086;-66
2024/04/02 04:40:37;;;;;;;34.65;15.27;;;;;;;;;;5013251;28;20034;-68
2024/04/02 04:43:03;;;;;;;32.40;11.50;;;;;;;;;;5032007;28;20581;-67
2024/04/02 04:45:28;;;;;;;30.17;11.00;;;;;;;;;;5030970;28;20037;-67
2024/04/02 04:47:55;;;;;;;30.53;12.87;;;;;;;;;;5031270;28;20022;-67
2024/04/02 04:50:20;;;;;;;35.03;21.40;;;;;;;;;;5031750;28;20247;-67
2024/04/02 04:52:46;;;;;;;40.03;17.90;;;;;;;;;;5032618;28;20033;-66
2024/04/02 04:55:11;;;;;;;30.50;17.00;;;;;;;;;;5035249;28;20290;-66
2024/04/02 04:57:36;;;;;;;31.65;13.52;;;;;;;;;;5034836;28;20025;-66
2024/04/02 05:00:02;;;;;;;31.92;11.38;;;;;;;;;;5035376;28;20049;-67
2024/04/02 05:02:28;;;;;;;29.30;10.73;;;;;;;;;;5035424;28;20021;-65
2024/04/02 05:04:54;;;;;;;27.40;9.17;;;;;;;;;;5035299;28;20026;-65
2024/04/02 05:07:23;;;;;;;23.60;8.60;;;;;;;;;;5034645;28;20100;-67
2024/04/02 05:09:48;;;;;;;25.20;8.93;;;;;;;;;;5035092;28;20033;-66
2024/04/02 05:12:13;;;;;;;29.40;8.70;;;;;;;;;;5035373;28;20025;-67
2024/04/02 05:14:39;;;;;;;23.90;8.93;;;;;;;;;;5034954;28;20111;-66
2024/04/02 05:17:04;;;;;;;30.47;9.37;;;;;;;;;;5033469;28;20862;-67
2024/04/02 05:19:29;;;;;;;28.50;13.60;;;;;;;;;;5034685;28;20146;-67
2024/04/02 05:21:54;;;;;;;32.87;12.80;;;;;;;;;;5034267;28;20360;-67
2024/04/02 05:24:20;;;;;;;31.17;10.43;;;;;;;;;;5034587;28;20026;-66
2024/04/02 05:26:45;;;;;;;29.53;9.57;;;;;;;;;;5034677;28;20417;-67
2024/04/02 05:29:10;;;;;;;30.53;8.90;;;;;;;;;;5034372;28;20095;-66
2024/04/02 05:31:36;;;;;;;21.63;8.37;;;;;;;;;;5034816;28;20026;-68
2024/04/02 05:34:01;;;;;;;24.40;8.50;;;;;;;;;;5034730;28;20021;-68
2024/04/02 05:36:26;;;;;;;28.67;9.07;;;;;;;;;;5033332;28;20251;-69
2024/04/02 05:38:52;;;;;;;26.30;8.83;;;;;;;;;;5034247;28;20030;-68
2024/04/02 05:41:17;;;;;;;22.35;8.30;;;;;;;;;;5034225;28;20262;-64
2024/04/02 05:43:42;;;;;;;24.90;8.03;;;;;;;;;;5034819;28;20026;-67
2024/04/02 05:46:07;;;;;;;30.23;9.10;;;;;;;;;;5034160;28;20148;-68
2024/04/02 05:48:33;;;;;;;33.20;9.27;;;;;;;;;;5034147;28;20095;-68
2024/04/02 05:50:58;;;;;;;32.70;9.07;;;;;;;;;;5033088;28;20405;-68
2024/04/02 05:53:23;;;;;;;27.83;9.48;;;;;;;;;;5033194;28;20033;-67
2024/04/02 05:55:49;;;;;;;36.17;9.50;;;;;;;;;;5033548;28;20125;-65
2024/04/02 05:58:14;;;;;;;36.10;10.15;;;;;;;;;;5034359;28;20345;-65
2024/04/02 06:00:40;;;;;;;33.38;9.50;;;;;;;;;;5034035;28;20171;-68
2024/04/02 06:03:05;;;;;;;36.80;9.67;;;;;;;;;;5034179;28;20032;-69
2024/04/02 06:05:30;;;;;;;34.40;9.63;;;;;;;;;;5033665;28;20436;-68
2024/04/02 06:07:57;;;;;;;33.37;10.37;;;;;;;;;;5034044;28;20083;-69
2024/04/02 06:10:22;;;;;;;30.08;9.63;;;;;;;;;;5033994;28;20018;-67
2024/04/02 06:12:48;;;;;;;37.35;10.27;;;;;;;;;;5034130;28;20341;-67
2024/04/02 06:15:13;;;;;;;30.70;10.47;;;;;;;;;;5034295;28;20049;-65
2024/04/02 06:17:39;;;;;;;33.73;10.33;;;;;;;;;;5033781;28;20302;-67
2024/04/02 06:20:05;;;;;;;34.20;10.27;;;;;;;;;;5032312;28;20318;-66
2024/04/02 06:22:32;;;;;;;29.95;9.80;;;;;;;;;;5033949;28;20041;-65
2024/04/02 06:24:58;;;;;;;39.85;10.48;;;;;;;;;;5033423;28;20026;-71
2024/04/02 06:27:23;;;;;;;35.73;10.27;;;;;;;;;;5033467;28;20502;-65
2024/04/02 06:29:48;;;;;;;38.13;10.60;;;;;;;;;;5034090;28;20265;-67
2024/04/02 06:32:13;;;;;;;35.50;10.50;;;;;;;;;;5033516;28;20031;-67
2024/04/02 06:34:39;;;;;;;55.83;11.80;;;;;;;;;;5033499;28;20018;-66
2024/04/02 06:37:04;;;;;;;35.47;9.90;;;;;;;;;;5033395;28;20029;-69
2024/04/02 06:39:29;;;;;;;30.50;9.33;;;;;;;;;;5033803;28;20140;-59
2024/04/02 06:41:54;;;;;;;37.80;9.97;;;;;;;;;;5033263;28;20026;-64
2024/04/02 06:44:20;;;;;;;31.53;9.80;;;;;;;;;;5033374;28;20022;-65
2024/04/02 06:46:45;;;;;;;30.73;10.77;;;;;;;;;;5032634;28;20254;-68
2024/04/02 06:49:10;;;;;;;41.67;10.63;;;;;;;;;;5033546;28;20321;-66
2024/04/02 06:51:36;;;;;;;36.65;10.40;;;;;;;;;;5032770;28;20724;-66
2024/04/02 06:54:02;;;;;;;36.40;10.35;;;;;;;;;;5031479;28;20038;-66
2024/04/02 06:56:27;;;;;;;32.58;10.05;;;;;;;;;;5033070;28;20031;-65
2024/04/02 06:58:54;;;;;;;40.38;10.80;;;;;;;;;;5032634;28;20359;-64
2024/04/02 07:01:21;;;;;;;37.50;10.20;;;;;;;;;;5030598;28;20037;-62
2024/04/02 07:03:47;;;;;;;35.88;10.73;;;;;;;;;;5029203;28;20049;-64
2024/04/02 07:06:13;;;;;;;35.40;10.63;;;;;;;;;;5031892;28;20029;-64
2024/04/02 07:08:38;;;;;;;40.43;10.43;;;;;;;;;;5031885;28;20277;-65
2024/04/02 07:11:05;;;;;;;29.90;10.50;;;;;;;;;;5031113;28;20278;-65
2024/04/02 07:13:31;;;;;;;39.05;10.48;;;;;;;;;;5031641;28;20033;-64
2024/04/02 07:15:56;;;;;;;31.50;9.98;;;;;;;;;;5031734;28;20018;-63
2024/04/02 07:18:22;;;;;;;35.67;11.00;;;;;;;;;;5032850;28;20048;-63
2024/04/02 07:21:01;;;;;;;33.38;10.27;;;;;;;;;;5031430;28;20116;-65
2024/04/02 07:23:26;;;;;;;30.27;10.13;;;;;;;;;;5029092;28;20030;-62
2024/04/02 07:25:51;;;;;;;33.27;10.70;;;;;;;;;;5048883;28;20086;-64
2024/04/02 07:28:18;;;;;;;29.25;10.45;;;;;;;;;;5052648;28;20021;-66
2024/04/02 07:30:43;;;;;;;41.73;11.03;;;;;;;;;;5043490;28;20079;-63
2024/04/02 07:33:08;;;;;;;37.47;10.47;;;;;;;;;;5030610;28;20531;-65
2024/04/02 07:35:35;;;;;;;36.05;11.13;;;;;;;;;;5031954;28;20441;-64
2024/04/02 07:38:00;;;;;;;47.80;11.68;;;;;;;;;;5031547;28;20100;-64
2024/04/02 07:40:26;;;;;;;44.97;11.60;;;;;;;;;;5031584;28;20108;-64
2024/04/02 07:42:51;;;;;;;34.37;11.10;;;;;;;;;;5031493;28;20017;-64
2024/04/02 07:45:17;;;;;;;46.72;11.40;;;;;;;;;;5031590;28;20040;-64
2024/04/02 07:47:46;;;;;;;35.17;10.53;;;;;;;;;;5030663;28;20026;-65
2024/04/02 07:50:11;;;;;;;40.28;11.90;;;;;;;;;;5031229;28;20243;-63
2024/04/02 07:52:36;;;;;;;38.83;11.13;;;;;;;;;;5029985;28;20403;-64
2024/04/02 07:55:02;;;;;;;42.60;11.50;;;;;;;;;;5030852;28;20038;-65
2024/04/02 07:57:28;;;;;;;41.20;12.60;;;;;;;;;;5031499;28;20029;-64
2024/04/02 07:59:53;;;;;;;46.73;13.07;;;;;;;;;;5031598;28;20052;-65
2024/04/02 08:02:18;;;;;;;47.10;11.70;;;;;;;;;;5030018;28;20640;-66
2024/04/02 08:04:44;;;;;;;42.83;11.82;;;;;;;;;;5030886;28;20021;-65
2024/04/02 08:07:10;;;;;;;48.70;11.23;;;;;;;;;;5029860;28;20030;-62
2024/04/02 08:09:35;;;;;;;41.42;11.32;;;;;;;;;;5030716;28;20083;-63
2024/04/02 08:12:01;;;;;;;50.60;11.45;;;;;;;;;;5029565;28;20025;-64
2024/04/02 08:14:31;;;;;;;51.77;12.20;;;;;;;;;;5030201;28;20036;-62
2024/04/02 08:16:57;;;;;;;45.63;10.88;;;;;;;;;;5031195;28;20432;-65
2024/04/02 08:19:22;;;;;;;45.53;11.45;;;;;;;;;;5031823;28;20021;-67
2024/04/02 08:21:47;;;;;;;43.97;10.80;;;;;;;;;;5030540;28;20029;-68
2024/04/02 08:24:13;;;;;;;37.50;9.55;;;;;;;;;;5031007;28;20334;-65
2024/04/02 08:26:38;;;;;;;46.50;10.43;;;;;;;;;;5030306;28;20030;-65
2024/04/02 08:29:03;;;;;;;43.70;10.37;;;;;;;;;;5033469;28;20455;-68
2024/04/02 08:31:31;;;;;;;55.35;10.60;;;;;;;;;;5032474;28;20422;-65
2024/04/02 08:33:57;;;;;;;38.03;9.33;;;;;;;;;;5034962;28;20144;-64
2024/04/02 08:36:22;;;;;;;46.53;9.93;;;;;;;;;;5034894;28;20029;-64
2024/04/02 08:38:47;;;;;;;45.87;11.40;;;;;;;;;;5034556;28;20079;-66
2024/04/02 08:41:13;;;;;;;43.40;10.63;;;;;;;;;;5035366;28;20275;-67
2024/04/02 08:43:40;;;;;;;45.30;11.18;;;;;;;;;;5035148;28;20467;-66
2024/04/02 08:46:07;;;;;;;44.50;10.10;;;;;;;;;;5034914;28;20179;-65
2024/04/02 08:48:33;;;;;;;53.30;10.15;;;;;;;;;;5034450;28;20022;-67
2024/04/02 08:51:00;;;;;;;43.35;9.95;;;;;;;;;;5034390;28;20052;-64
2024/04/02 08:53:25;;;;;;;41.10;10.23;;;;;;;;;;5034259;28;20399;-64
2024/04/02 08:55:51;;;;;;;44.25;9.73;;;;;;;;;;5034531;28;20046;-66
2024/04/02 08:58:16;;;;;;;38.30;9.35;;;;;;;;;;5033869;28;20067;-64
2024/04/02 09:00:42;;;;;;;46.80;10.00;;;;;;;;;;5034274;28;20045;-64
2024/04/02 09:03:08;;;;;;;48.35;10.75;;;;;;;;;;5033123;28;20140;-63
2024/04/02 09:05:33;;;;;;;46.03;10.68;;;;;;;;;;5034807;28;20393;-66
2024/04/02 09:07:58;;;;;;;42.27;10.27;;;;;;;;;;5033638;28;20426;-65
2024/04/02 09:10:23;;;;;;;49.97;10.18;;;;;;;;;;5067456;28;20334;-64
2024/04/02 09:12:49;;;;;;;45.17;10.75;;;;;;;;;;5034419;28;20060;-66
2024/04/02 09:15:15;;;;;;;46.83;9.77;;;;;;;;;;5033672;28;20029;-65
2024/04/02 09:17:41;;;;;;;45.00;11.25;;;;;;;;;;5033842;28;20087;-65
2024/04/02 09:20:06;;;;;;;49.42;10.95;;;;;;;;;;5032712;28;20420;-64
2024/04/02 09:22:32;;;;;;;45.38;10.98;;;;;;;;;;5030266;28;20033;-64
2024/04/02 09:24:57;;;;;;;48.37;10.57;;;;;;;;;;5031416;28;20131;-66
2024/04/02 09:27:22;;;;;;;60.67;11.13;;;;;;;;;;5033523;28;20704;-65
2024/04/02 09:29:48;;;;;;;55.75;11.00;;;;;;;;;;5033164;28;20056;-67
2024/04/02 09:32:17;;;;;;;48.97;10.82;;;;;;;;;;5032673;28;20388;-68
2024/04/02 09:34:44;;;;;;;45.45;10.32;;;;;;;;;;5031929;28;20025;-67
2024/04/02 09:37:10;;;;;;;53.83;11.00;;;;;;;;;;5032732;28;20025;-68
2024/04/02 09:39:35;;;;;;;47.07;10.97;;;;;;;;;;5033138;28;20040;-65
2024/04/02 09:42:00;;;;;;;53.83;11.73;;;;;;;;;;5033294;28;20061;-66
2024/04/02 09:44:26;;;;;;;62.10;12.20;;;;;;;;;;5032913;28;20017;-61
2024/04/02 09:46:53;;;;;;;51.42;10.70;;;;;;;;;;5032799;28;20032;-63
2024/04/02 09:49:23;;;;;;;42.13;11.45;;;;;;;;;;5032526;28;20498;-63
2024/04/02 09:51:50;;;;;;;41.38;11.32;;;;;;;;;;5033740;28;20029;-63
2024/04/02 09:54:15;;;;;;;54.35;12.82;;;;;;;;;;5064768;28;20054;-64
2024/04/02 09:56:42;;;;;;;49.17;12.45;;;;;;;;;;5033302;28;20743;-64
2024/04/02 09:59:08;;;;;;;50.28;11.88;;;;;;;;;;5032621;28;20025;-64
2024/04/02 10:01:35;;;;;;;54.00;12.10;;;;;;;;;;5031301;28;20448;-61
2024/04/02 10:04:13;;;;;;;49.17;12.43;;;;;;;;;;5032688;28;20356;-63
2024/04/02 10:06:38;;;;;;;50.17;11.50;;;;;;;;;;5032164;28;20487;-65
2024/04/02 10:09:05;;;;;;;53.73;11.57;;;;;;;;;;5032322;28;20041;-66
2024/04/02 10:11:35;;;;;;;48.65;11.82;;;;;;;;;;5032713;28;20029;-63
2024/04/02 10:14:02;;;;;;;50.33;11.70;;;;;;;;;;5031254;28;20029;-63
2024/04/02 10:16:34;;;;;;;49.58;11.57;;;;;;;;;;5032716;28;20021;-63
2024/04/02 10:19:01;;;;;;;54.00;11.40;;;;;;;;;;5032928;28;20021;-64
2024/04/02 10:21:27;;;;;;;53.72;11.00;;;;;;;;;;5033360;28;20040;-64
2024/04/02 10:23:53;;;;;;;53.97;12.50;;;;;;;;;;5032765;28;20026;-64
2024/04/02 10:26:18;;;;;;;47.15;10.95;;;;;;;;;;5032363;28;20456;-66
2024/04/02 10:28:44;;;;;;;45.35;11.15;;;;;;;;;;5032344;28;20048;-66
2024/04/02 10:31:16;;;;;;;55.17;12.00;;;;;;;;;;5032572;28;20057;-67
2024/04/02 10:33:43;;;;;;;58.78;11.63;;;;;;;;;;5031847;28;20026;-66
2024/04/02 10:36:09;;;;;;;49.33;11.10;;;;;;;;;;5033158;28;20053;-66
2024/04/02 10:38:34;;;;;;;56.65;11.07;;;;;;;;;;5031430;28;20064;-66
2024/04/02 10:40:59;;;;;;;49.40;11.93;;;;;;;;;;5033034;28;20124;-66
2024/04/02 10:43:24;;;;;;;49.13;10.73;;;;;;;;;;5033044;28;20439;-67
2024/04/02 10:45:51;;;;;;;52.47;12.33;;;;;;;;;;5033136;28;20239;-69
2024/04/02 10:48:16;;;;;;;60.97;11.05;;;;;;;;;;5031687;28;20736;-66
2024/04/02 10:50:42;;;;;;;50.50;11.50;;;;;;;;;;5031638;28;20109;-68
2024/04/02 10:53:07;;;;;;;46.10;10.70;;;;;;;;;;5032243;28;20060;-69
2024/04/02 10:55:32;;;;;;;42.93;11.10;;;;;;;;;;5032454;28;20107;-69
2024/04/02 10:57:59;;;;;;;45.17;10.52;;;;;;;;;;5032888;28;20270;-63
2024/04/02 11:00:25;;;;;;;42.00;11.15;;;;;;;;;;5031980;28;20410;-67
2024/04/02 11:02:52;;;;;;;45.57;10.40;;;;;;;;;;5032132;28;20109;-65
2024/04/02 11:05:17;;;;;;;48.17;11.38;;;;;;;;;;5031634;28;20258;-67
2024/04/02 11:07:44;;;;;;;51.63;10.57;;;;;;;;;;5032142;28;20098;-66
2024/04/02 11:10:10;;;;;;;48.65;11.20;;;;;;;;;;5032259;28;20269;-67
2024/04/02 11:12:35;;;;;;;54.47;11.20;;;;;;;;;;5032134;28;20341;-66
2024/04/02 11:15:00;;;;;;;39.65;10.75;;;;;;;;;;5031915;28;20384;-66
2024/04/02 11:17:26;;;;;;;55.70;10.73;;;;;;;;;;5031113;28;20021;-66
2024/04/02 11:19:51;;;;;;;55.50;11.83;;;;;;;;;;5032316;28;20044;-66
2024/04/02 11:25:11;;;;;;;50.00;11.02;;;;;;;;;;5031770;28;20255;-67
2024/04/02 11:27:36;;;;;;;58.75;11.10;;;;;;;;;;5031710;28;20391;-64
2024/04/02 11:30:02;;;;;;;51.45;10.93;;;;;;;;;;5032094;28;20436;-67
2024/04/02 11:32:29;;;;;;;56.72;10.65;;;;;;;;;;5028782;28;20107;-60
2024/04/02 11:34:57;;;;;;;54.72;10.52;;;;;;;;;;5031564;28;20460;-63
2024/04/02 11:37:22;;;;;;;53.90;11.40;;;;;;;;;;5032030;28;20025;-63
2024/04/02 11:39:48;;;;;;;50.43;11.57;;;;;;;;;;5031517;28;20044;-64
2024/04/02 11:42:13;;;;;;;54.83;11.73;;;;;;;;;;5031676;28;20273;-64
2024/04/02 11:44:38;;;;;;;49.63;11.40;;;;;;;;;;5031844;28;20017;-64
2024/04/02 11:47:04;;;;;;;47.40;10.98;;;;;;;;;;5031433;28;20022;-65
2024/04/02 11:49:29;;;;;;;61.58;11.75;;;;;;;;;;5030728;28;20029;-60
2024/04/02 11:51:54;;;;;;;51.60;12.30;;;;;;;;;;5032031;28;20493;-64
2024/04/02 11:54:20;;;;;;;53.37;10.50;;;;;;;;;;5031242;28;20060;-64
2024/04/02 12:02:13;;;;;;;53.85;10.73;;;;;;;;;;5034267;28;20021;-68
2024/04/02 12:04:38;;;;;;;65.45;11.90;;;;;;;;;;5036348;28;20032;-71
2024/04/02 12:07:03;;;;;;;48.20;11.20;;;;;;;;;;5038428;28;20036;-65
2024/04/02 12:09:28;;;;;;;51.43;10.67;;;;;;;;;;5038895;28;20270;-64
2024/04/02 12:11:54;;;;;;;49.53;11.33;;;;;;;;;;5038170;28;20033;-64
2024/04/02 12:14:19;;;;;;;53.07;11.23;;;;;;;;;;5037913;28;20286;-64
2024/04/02 12:16:45;;;;;;;59.87;11.33;;;;;;;;;;5037880;28;20443;-65
2024/04/02 12:19:10;;;;;;;64.95;12.27;;;;;;;;;;5037872;28;20278;-62
2024/04/02 12:21:36;;;;;;;60.97;10.47;;;;;;;;;;5036878;28;20091;-64
2024/04/02 12:24:01;;;;;;;62.93;11.53;;;;;;;;;;5037577;28;20661;-62
2024/04/02 12:26:26;;;;;;;44.70;11.33;;;;;;;;;;5038309;28;20048;-64
2024/04/02 12:28:51;;;;;;;58.90;11.73;;;;;;;;;;5036689;28;20752;-64
2024/04/02 12:31:17;;;;;;;48.43;10.60;;;;;;;;;;5037009;28;20067;-65
2024/04/02 12:33:42;;;;;;;54.10;11.43;;;;;;;;;;5038283;28;20053;-67
2024/04/02 12:36:07;;;;;;;59.67;11.50;;;;;;;;;;5037041;28;20025;-64
2024/04/02 12:38:33;;;;;;;54.50;11.50;;;;;;;;;;5036325;28;20444;-63
2024/04/02 12:41:01;;;;;;;59.70;11.13;;;;;;;;;;5038503;28;20115;-65
2024/04/02 12:43:27;;;;;;;69.18;12.30;;;;;;;;;;5038596;28;20258;-66
2024/04/02 12:45:52;;;;;;;58.65;12.40;;;;;;;;;;5035017;28;20080;-66
2024/04/02 12:48:18;;;;;;;53.33;11.48;;;;;;;;;;5037445;28;20762;-67
2024/04/02 12:50:52;;;;;;;58.47;11.80;;;;;;;;;;5038109;28;20037;-67
2024/04/02 12:53:18;;;;;;;55.30;10.90;;;;;;;;;;5038278;28;20017;-67
2024/04/02 12:55:43;;;;;;;59.65;11.63;;;;;;;;;;5037429;28;20052;-68
2024/04/02 12:58:08;;;;;;;59.87;12.83;;;;;;;;;;5037838;28;20034;-65
2024/04/02 13:00:40;;;;;;;61.63;11.57;;;;;;;;;;5036613;28;20694;-66
2024/04/02 13:03:05;;;;;;;60.78;11.32;;;;;;;;;;5037858;28;20326;-67
2024/04/02 13:05:37;;;;;;;59.27;11.97;;;;;;;;;;5037410;28;20096;-66
2024/04/02 13:08:06;;;;;;;55.38;11.50;;;;;;;;;;5037684;28;20401;-66
2024/04/02 13:10:34;;;;;;;70.00;13.30;;;;;;;;;;5036977;28;20061;-66
2024/04/02 13:12:59;;;;;;;54.53;11.65;;;;;;;;;;5036976;28;20252;-59
2024/04/02 13:15:32;;;;;;;57.20;11.35;;;;;;;;;;5034616;28;20053;-65
2024/04/02 13:17:58;;;;;;;57.58;11.57;;;;;;;;;;5034212;28;20037;-64
2024/04/02 13:20:27;;;;;;;69.30;12.13;;;;;;;;;;5034326;28;20095;-66
2024/04/02 13:22:52;;;;;;;67.68;11.25;;;;;;;;;;5034490;28;20037;-64
2024/04/02 13:25:17;;;;;;;49.40;11.65;;;;;;;;;;5034155;28;20033;-65
2024/04/02 13:27:44;;;;;;;49.80;10.85;;;;;;;;;;5033656;28;20033;-66
2024/04/02 13:30:09;;;;;;;48.28;11.38;;;;;;;;;;5034155;28;20026;-62
2024/04/02 13:32:34;;;;;;;60.88;11.73;;;;;;;;;;5033197;28;20435;-63
2024/04/02 13:35:00;;;;;;;61.60;10.93;;;;;;;;;;5033546;28;20018;-63
2024/04/02 13:37:25;;;;;;;57.50;10.80;;;;;;;;;;5033289;28;20250;-64
2024/04/02 13:39:50;;;;;;;48.07;10.90;;;;;;;;;;5033534;28;20094;-65
2024/04/02 13:42:16;;;;;;;63.07;11.37;;;;;;;;;;5033636;28;20144;-63
2024/04/02 13:44:41;;;;;;;56.10;10.87;;;;;;;;;;5033084;28;20026;-63
2024/04/02 13:47:06;;;;;;;48.35;10.95;;;;;;;;;;5033510;28;20751;-65
2024/04/02 13:49:32;;;;;;;64.73;10.83;;;;;;;;;;5033348;28;20025;-64
2024/04/02 13:51:57;;;;;;;64.75;11.63;;;;;;;;;;5033872;28;20579;-64
2024/04/02 13:54:23;;;;;;;52.53;10.88;;;;;;;;;;5033747;28;20111;-64
2024/04/02 13:56:48;;;;;;;68.20;12.20;;;;;;;;;;5033672;28;20025;-65
2024/04/02 13:59:14;;;;;;;52.47;11.37;;;;;;;;;;5033187;28;20416;-65
2024/04/02 14:01:40;;;;;;;60.17;11.88;;;;;;;;;;5033033;28;20254;-64
2024/04/02 14:04:05;;;;;;;46.95;10.65;;;;;;;;;;5032946;28;20505;-64
2024/04/02 14:06:31;;;;;;;56.45;11.07;;;;;;;;;;5033323;28;20064;-63
2024/04/02 14:08:56;;;;;;;53.13;10.47;;;;;;;;;;5033105;28;20095;-64
2024/04/02 14:11:21;;;;;;;63.90;11.60;;;;;;;;;;5032979;28;20255;-64
2024/04/02 14:13:47;;;;;;;61.07;11.03;;;;;;;;;;5032048;28;20360;-65
2024/04/02 14:16:17;;;;;;;73.07;11.75;;;;;;;;;;5029812;28;20021;-62
2024/04/02 14:18:43;;;;;;;59.53;11.30;;;;;;;;;;5033328;28;20021;-63
2024/04/02 14:21:08;;;;;;;73.47;12.15;;;;;;;;;;5032329;28;20464;-63